Flight Track Log - Related Links

Times and Time Zones

All times are in EDT time to prevent confusion due to time zone crossing. See the SKW5535 flight status page for this flight to view local times or setup timezone preferences in your user account.

Time Position Orientation Groundspeed Altitude Reporting Facility
EDT Latitude Longitude Course Direction KTS MPH feet Rate Location/Type
Thu 12:25:02 PM 39.8500 -104.7500 323° Northwest 204 235 6,500  Level Denver TRACON
Thu 12:26:02 PM 39.8833 -104.7833 323° Northwest 223 257 8,300 1,474 Climbing Denver TRACON
Thu 12:26:56 PM 39.9500 -104.8000 349° North 279 321 9,300 1,158 Climbing Denver TRACON
Thu 12:27:56 PM 40.0333 -104.8000 360° North 288 331 10,500 1,400 Climbing Denver TRACON
Thu 12:28:56 PM 40.1167 -104.8000 360° North 303 349 12,100 1,650 Climbing Denver TRACON
Thu 12:29:56 PM 40.2167 -104.8000 360° North 325 374 13,800 1,550 Climbing Denver TRACON
Thu 12:30:56 PM 40.3000 -104.8000 360° North 343 395 15,200 1,476 Climbing Denver TRACON
Thu 12:32:02 PM 40.4000 -104.7833 North 335 386 16,900 1,398 Climbing Denver TRACON
Thu 12:33:09 PM 40.4953 -104.7894 357° North 332 382 18,300 1,395 Climbing Salt Center
Thu 12:34:11 PM 40.5994 -104.7872 North 335 386 19,900 1,314 Climbing Salt Center
Thu 12:35:26 PM 40.7164 -104.7844 North 343 395 21,300 1,095 Climbing Denver Center
Thu 12:36:28 PM 40.8117 -104.7819 North 334 384 22,400 1,016 Climbing Denver Center
Thu 12:37:30 PM 40.9103 -104.7767 North 352 405 23,400 968 Climbing Denver Center
Thu 12:38:32 PM 41.0178 -104.7917 354° North 358 412 24,400 823 Climbing Denver Center
Thu 12:39:34 PM 41.0867 -104.8789 316° Northwest 355 409 25,100 629 Climbing Denver Center
Thu 12:40:36 PM 41.1667 -104.9917 313° West 371 427 25,700 581 Climbing Denver Center
Thu 12:41:38 PM 41.2364 -105.0867 314° West 374 430 26,300 677 Climbing Denver Center
Thu 12:42:40 PM 41.3172 -105.1972 314° West 374 430 27,100 726 Climbing Denver Center
Thu 12:43:42 PM 41.3872 -105.2917 315° West 371 427 27,800 726 Climbing Denver Center
Thu 12:44:44 PM 41.4658 -105.3992 314° West 365 420 28,600 629 Climbing Denver Center
Thu 12:45:46 PM 41.5336 -105.4922 314° West 364 419 29,100 484 Climbing Denver Center
Thu 12:46:48 PM 41.6008 -105.5864 314° West 366 421 29,600 532 Climbing Denver Center
Thu 12:47:50 PM 41.6806 -105.6958 314° West 366 421 30,200 532 Climbing Denver Center
Thu 12:48:52 PM 41.7483 -105.7908 314° West 367 422 30,700 484 Climbing Denver Center
Thu 12:49:54 PM 41.8269 -105.8992 314° West 364 419 31,200 480 Climbing Denver Center
Thu 12:50:57 PM 41.8939 -105.9944 313° West 364 419 31,700 384 Climbing Denver Center
Thu 12:51:59 PM 41.9742 -106.1058 314° West 368 423 32,000 145 Climbing Denver Center
Thu 12:53:01 PM 42.0417 -106.2019 313° West 368 423 32,000  Level Denver Center
Thu 12:54:03 PM 42.1264 -106.3200 314° West 385 443 32,000  Level Denver Center
Thu 12:55:05 PM 42.1992 -106.4236 313° West 395 455 32,000  Level Denver Center
Thu 12:56:07 PM 42.2803 -106.5400 313° West 400 460 32,000  Level Denver Center
Thu 12:57:09 PM 42.3578 -106.6517 313° West 402 463 32,000  Level Denver Center
Thu 12:58:11 PM 42.4436 -106.7744 313° West 403 464 32,000  Level Denver Center
Thu 12:59:13 PM 42.5125 -106.8731 313° West 402 463 32,000  Level Denver Center
Thu 01:00:15 PM 42.5961 -106.9956 313° West 397 457 32,000  Level Denver Center
Thu 01:01:17 PM 42.6739 -107.1069 314° West 398 458 32,000  Level Denver Center
Thu 01:02:19 PM 42.7467 -107.2131 313° West 398 458 32,000  Level Denver Center
Thu 01:03:21 PM 42.8253 -107.3297 313° West 401 461 32,000  Level Denver Center
Thu 01:04:11 PM 42.8986 -107.4372 313° West 402 463 32,000  Level Salt Center
Thu 01:05:13 PM 42.9706 -107.5442 313° West 400 460 32,000  Level Salt Center
Thu 01:06:15 PM 43.0536 -107.6692 312° West 400 460 32,000  Level Salt Center
Thu 01:07:17 PM 43.1267 -107.7769 313° West 403 464 32,000  Level Salt Center
Thu 01:08:19 PM 43.2108 -107.9025 313° West 402 463 32,000  Level Salt Center
Thu 01:09:21 PM 43.2833 -108.0125 312° West 404 465 32,000  Level Salt Center
Thu 01:10:24 PM 43.3558 -108.1217 312° West 406 467 32,000  Level Salt Center
Thu 01:11:26 PM 43.4400 -108.2497 312° West 405 466 32,000  Level Salt Center
Thu 01:12:28 PM 43.5125 -108.3600 312° West 406 467 32,000  Level Salt Center
Thu 01:13:30 PM 43.5972 -108.4875 313° West 405 466 32,000  Level Salt Center
Thu 01:14:32 PM 43.6700 -108.5992 312° West 408 470 32,000  Level Salt Center
Thu 01:15:34 PM 43.7542 -108.7300 312° West 409 471 32,000  Level Salt Center
Thu 01:16:36 PM 43.8333 -108.8539 312° West 408 470 32,000  Level Salt Center
Thu 01:17:38 PM 43.9061 -108.9656 312° West 408 470 32,000  Level Salt Center
Thu 01:18:40 PM 43.9903 -109.0978 312° West 409 471 32,000  Level Salt Center
Thu 01:19:42 PM 44.0622 -109.2103 312° West 408 470 32,000  Level Salt Center
Thu 01:20:44 PM 44.1467 -109.3431 312° West 410 472 32,000  Level Salt Center
Thu 01:21:46 PM 44.2194 -109.4569 312° West 411 473 32,000  Level Salt Center
Thu 01:22:48 PM 44.3033 -109.5914 311° West 412 474 32,000  Level Salt Center
Thu 01:23:50 PM 44.3769 -109.7064 312° West 414 476 32,000  Level Salt Center
Thu 01:24:52 PM 44.4614 -109.8425 311° West 416 479 32,000  Level Salt Center
Thu 01:25:54 PM 44.5331 -109.9592 311° West 412 474 32,000  Level Salt Center
Thu 01:26:57 PM 44.6175 -110.0958 311° West 416 479 32,000  Level Salt Center
Thu 01:27:59 PM 44.6897 -110.2128 311° West 416 479 32,000  Level Salt Center
Thu 01:29:01 PM 44.7619 -110.3308 311° West 416 479 32,000  Level Salt Center
Thu 01:30:03 PM 44.8458 -110.4669 311° West 415 478 32,000  Level Salt Center
Thu 01:31:05 PM 44.9169 -110.5858 310° West 415 478 32,000  Level Salt Center
Thu 01:32:07 PM 45.0019 -110.7242 311° West 418 481 32,000  Level Salt Center
Thu 01:33:09 PM 45.0736 -110.8417 311° West 416 479 32,000  Level Salt Center
Thu 01:34:11 PM 45.1525 -110.9750 310° West 417 480 32,000  Level Salt Center
Thu 01:35:13 PM 45.2272 -111.1008 310° West 415 478 32,000  Level Salt Center
Thu 01:36:15 PM 45.3031 -111.2278 310° West 418 481 32,000  Level Salt Center
Thu 01:37:17 PM 45.3786 -111.3553 310° West 418 481 32,000  Level Salt Center
Thu 01:38:19 PM 45.4689 -111.5100 310° West 419 482 32,000  Level Salt Center
Thu 01:39:21 PM 45.5439 -111.6397 310° West 420 483 32,000  Level Salt Center
Thu 01:40:23 PM 45.6197 -111.7689 310° West 421 484 32,000  Level Salt Center
Thu 01:41:25 PM 45.6961 -111.8983 310° West 422 486 32,000  Level Salt Center
Thu 01:42:27 PM 45.7708 -112.0292 309° West 422 486 32,000  Level Salt Center
Thu 01:43:29 PM 45.8461 -112.1600 310° West 422 486 32,000  Level Salt Center
Thu 01:44:31 PM 45.9217 -112.2922 309° West 426 490 32,000  Level Salt Center
Thu 01:45:34 PM 45.9967 -112.4239 309° West 426 490 32,000  Level Salt Center
Thu 01:46:36 PM 46.0861 -112.5833 309° West 426 490 32,000 -48 Level Salt Center
Thu 01:47:38 PM 46.1611 -112.7164 309° West 427 491 31,900 -1,694 Descending Salt Center
Thu 01:48:40 PM 46.2369 -112.8478 310° West 426 490 28,500 -3,435 Descending Salt Center
Thu 01:49:42 PM 46.3125 -112.9839 309° West 432 497 24,800 -3,290 Descending Salt Center
Thu 01:50:44 PM 46.3875 -113.1164 309° West 426 490 21,700 -3,000 Descending Salt Center
Thu 01:51:46 PM 46.4611 -113.2492 309° West 428 493 18,600 -3,145 Descending Salt Center
Thu 01:52:48 PM 46.5433 -113.4031 308° West 393 452 15,200 -1,742 Descending Salt Center
Thu 01:53:50 PM 46.6011 -113.5072 309° West 324 373 15,000 -726 Descending Salt Center
Thu 01:54:52 PM 46.6503 -113.5981 308° West 269 310 13,700 -1,742 Descending Salt Center
Thu 01:55:54 PM 46.6978 -113.6864 308° West 276 318 11,400 -1,694 Descending Salt Center
Thu 01:56:56 PM 46.7458 -113.7756 308° West 279 321 10,200 -1,488 Descending Salt Center
Thu 01:57:59 PM 46.7892 -113.8597 307° West 243 280 8,300 -1,536 Descending Salt Center
Thu 01:59:01 PM 46.8264 -113.9317 307° West 225 259 7,000 -1,756 Descending Salt Center
Thu 02:00:02 PM 46.8667 -114.0075 308° West 221 254 4,700 -1,645 Descending Salt Center
Thu 02:01:05 PM 46.8942 -114.0544 311° West 160 184 3,600 -726 Descending Salt Center
Thu 02:02:06 PM 46.9175 -114.0947 310° West 152 175 3,200 -393 Descending Salt Center

Login

Don't have an account? Register now (free) for customized features, flight alerts, and more!